Time;durP1;ratioP1;P1;durP2;ratioP2;P2;SDS_P1;SDS_P2;PMS_P1;PMS_P2;Temp;Humidity;BMP_temperature;BMP_pressure;BME280_temperature;BME280_humidity;BME280_pressure;Samples;Min_cycle;Max_cycle;Signal;HPM_P1;HPM_P2
2023/09/06 00:01:50;;;;;;;9.70;7.20;;;;;;;11.68;92.97;98688.98;107084;1275;22548;-77
2023/09/06 00:04:18;;;;;;;9.30;7.70;;;;;;;11.71;93.01;98692.73;106514;1277;22828;-77
2023/09/06 00:06:46;;;;;;;11.20;7.20;;;;;;;11.69;92.91;98694.16;107090;1277;22554;-79
2023/09/06 00:09:14;;;;;;;8.50;7.40;;;;;;;11.62;92.82;98695.31;107125;1278;22515;-78
2023/09/06 00:11:42;;;;;;;8.90;7.30;;;;;;;11.56;92.80;98694.28;107003;1277;23159;-77
2023/09/06 00:14:12;;;;;;;8.60;7.60;;;;;;;11.55;93.15;98694.56;106861;1277;22658;-77
2023/09/06 00:16:40;;;;;;;7.90;7.10;;;;;;;11.54;93.04;98698.83;106822;1278;25709;-79
2023/09/06 00:19:08;;;;;;;8.10;7.20;;;;;;;11.56;92.95;98702.17;106827;1277;22599;-78
2023/09/06 00:21:40;;;;;;;8.10;7.30;;;;;;;11.55;92.93;98703.31;107030;1278;22598;-77
2023/09/06 00:24:12;;;;;;;8.50;7.60;;;;;;;11.52;92.71;98708.73;107134;1277;22763;-77
2023/09/06 00:26:40;;;;;;;9.70;7.60;;;;;;;11.48;93.01;98706.45;107181;1278;24498;-78
2023/09/06 00:29:08;;;;;;;8.20;7.40;;;;;;;11.46;93.28;98711.34;107037;1277;175451;-78
2023/09/06 00:31:36;;;;;;;8.70;7.30;;;;;;;11.45;93.27;98711.94;107059;1272;22657;-78
2023/09/06 00:34:04;;;;;;;10.50;7.80;;;;;;;11.43;93.06;98713.04;106877;1262;24270;-78
2023/09/06 00:36:33;;;;;;;8.60;7.50;;;;;;;11.38;93.29;98714.64;106723;1278;22654;-77
2023/09/06 00:39:04;;;;;;;9.60;7.70;;;;;;;11.30;94.05;98710.61;107084;1277;22518;-78
2023/09/06 00:41:33;;;;;;;12.00;8.40;;;;;;;11.19;94.35;98708.61;107055;1277;22635;-78
2023/09/06 00:44:01;;;;;;;9.20;7.50;;;;;;;11.09;94.21;98707.33;107066;1277;22640;-76
2023/09/06 00:46:29;;;;;;;9.30;8.20;;;;;;;11.04;94.19;98708.13;106624;1278;22531;-77
2023/09/06 00:48:57;;;;;;;9.20;7.30;;;;;;;11.06;94.34;98713.39;107071;1278;22640;-78
2023/09/06 00:51:26;;;;;;;9.50;7.00;;;;;;;11.01;95.70;98712.41;106740;1278;22524;-78
2023/09/06 00:54:00;;;;;;;10.10;7.70;;;;;;;10.90;97.20;98713.30;107051;1278;22576;-78
2023/09/06 00:56:29;;;;;;;8.70;7.70;;;;;;;10.81;96.53;98712.83;106914;1278;22539;-77
2023/09/06 00:58:57;;;;;;;8.60;7.70;;;;;;;10.72;96.56;98711.64;107099;1277;22766;-78
2023/09/06 01:01:25;;;;;;;9.30;7.30;;;;;;;10.68;95.88;98714.30;106683;1277;22528;-78
2023/09/06 01:03:53;;;;;;;8.20;7.40;;;;;;;10.73;96.25;98709.10;107054;1278;22526;-78
2023/09/06 01:06:27;;;;;;;9.60;8.00;;;;;;;10.80;96.25;98707.34;106971;1277;22553;-78
2023/09/06 01:08:57;;;;;;;9.30;7.90;;;;;;;10.87;96.25;98706.36;106694;1278;25406;-78
2023/09/06 01:11:27;;;;;;;9.30;6.90;;;;;;;10.88;97.05;98698.33;106630;1277;22536;-78
2023/09/06 01:14:01;;;;;;;7.70;6.70;;;;;;;10.80;98.88;98700.71;106649;1277;25288;-77
2023/09/06 01:16:42;;;;;;;7.70;6.50;;;;;;;10.68;98.61;98697.65;106702;1277;22517;-78
2023/09/06 01:19:13;;;;;;;7.70;6.90;;;;;;;10.58;98.66;98700.67;106892;1277;26623;-78
2023/09/06 01:22:06;;;;;;;9.90;6.70;;;;;;;10.52;98.43;98699.04;106892;1278;24246;-78
2023/09/06 01:24:36;;;;;;;7.80;6.30;;;;;;;10.51;99.11;98699.54;106874;1278;25472;-76
2023/09/06 01:27:05;;;;;;;7.50;6.40;;;;;;;10.46;99.42;98698.12;106775;1278;22539;-76
2023/09/06 01:29:34;;;;;;;7.50;6.80;;;;;;;10.45;99.18;98699.56;106671;1278;22547;-76
2023/09/06 01:32:05;;;;;;;7.70;6.90;;;;;;;10.49;99.44;98696.52;106854;1278;22651;-77
2023/09/06 01:34:33;;;;;;;7.50;6.30;;;;;;;10.50;100.00;98695.40;106862;1278;22565;-77
2023/09/06 01:37:01;;;;;;;8.10;7.20;;;;;;;10.47;100.00;98694.27;106507;1278;22643;-77
2023/09/06 01:39:30;;;;;;;7.90;6.90;;;;;;;10.45;99.98;98695.16;106502;1278;22576;-77
2023/09/06 01:41:58;;;;;;;8.70;7.00;;;;;;;10.44;99.93;98693.80;106674;1278;22662;-76
2023/09/06 01:44:26;;;;;;;9.70;6.30;;;;;;;10.45;99.74;98687.72;106994;1278;22576;-77
2023/09/06 01:46:55;;;;;;;9.70;6.90;;;;;;;10.50;99.40;98690.33;106668;1278;22877;-76
2023/09/06 01:49:23;;;;;;;7.50;6.60;;;;;;;10.50;98.90;98685.96;106661;1278;25174;-77
2023/09/06 01:51:51;;;;;;;8.80;6.70;;;;;;;10.51;99.19;98683.38;106667;1278;22593;-76
2023/09/06 01:54:19;;;;;;;8.20;6.00;;;;;;;10.51;99.50;98686.82;106645;1278;23676;-77
2023/09/06 01:56:47;;;;;;;8.40;6.70;;;;;;;10.44;100.00;98684.15;106621;1278;24214;-77
2023/09/06 01:59:15;;;;;;;9.00;7.20;;;;;;;10.39;100.00;98684.63;106747;1278;22800;-77
2023/09/06 02:01:43;;;;;;;8.50;7.40;;;;;;;10.38;100.00;98684.20;106619;1278;22715;-77
2023/09/06 02:04:11;;;;;;;6.90;5.80;;;;;;;10.42;100.00;98684.23;106931;1278;22550;-77
2023/09/06 02:06:39;;;;;;;8.70;6.30;;;;;;;10.43;99.84;98682.54;107021;1278;22574;-77
2023/09/06 02:09:07;;;;;;;7.20;6.30;;;;;;;10.43;99.64;98681.04;106633;1278;25389;-77
2023/09/06 02:11:35;;;;;;;8.90;6.90;;;;;;;10.44;99.57;98678.45;106634;1255;25491;-76
2023/09/06 02:14:04;;;;;;;7.90;6.70;;;;;;;10.45;99.47;98676.30;106960;1278;22611;-77
2023/09/06 02:16:32;;;;;;;8.20;7.40;;;;;;;10.44;99.64;98672.10;106624;1278;22520;-77
2023/09/06 02:19:00;;;;;;;15.80;7.40;;;;;;;10.44;99.50;98672.73;106970;1278;22752;-78
2023/09/06 02:21:28;;;;;;;7.30;6.30;;;;;;;10.44;99.49;98671.44;106933;1278;24425;-81
2023/09/06 02:23:56;;;;;;;9.30;7.00;;;;;;;10.45;99.43;98670.09;106624;1278;22944;-77
2023/09/06 02:26:24;;;;;;;7.30;6.40;;;;;;;10.44;99.32;98667.77;106589;1278;22756;-78
2023/09/06 02:28:52;;;;;;;9.90;7.00;;;;;;;10.38;99.22;98670.84;106654;1278;24036;-78
2023/09/06 02:31:20;;;;;;;11.10;7.10;;;;;;;10.36;99.48;98673.91;106901;1277;22581;-78
2023/09/06 02:33:48;;;;;;;8.10;6.80;;;;;;;10.33;99.41;98671.23;107001;1278;25128;-78
2023/09/06 02:36:16;;;;;;;7.70;6.90;;;;;;;10.32;99.54;98670.16;107086;1278;25409;-77
2023/09/06 02:38:47;;;;;;;11.30;7.50;;;;;;;10.34;99.38;98673.66;107064;1277;22535;-78
2023/09/06 02:41:15;;;;;;;7.80;6.80;;;;;;;10.36;99.38;98676.03;107026;1277;22526;-78
2023/09/06 02:43:44;;;;;;;9.40;6.40;;;;;;;10.33;98.97;98673.92;107066;1277;24381;-78
2023/09/06 02:46:15;;;;;;;6.90;6.20;;;;;;;10.30;99.24;98675.50;106981;1277;22640;-77
2023/09/06 02:48:46;;;;;;;9.60;7.60;;;;;;;10.25;99.18;98682.73;107008;1277;25418;-77
2023/09/06 02:51:15;;;;;;;7.90;6.90;;;;;;;10.16;99.79;98680.02;107027;1277;22521;-78
2023/09/06 02:53:45;;;;;;;9.80;7.70;;;;;;;10.05;99.92;98679.38;106722;1278;23872;-78
2023/09/06 02:56:14;;;;;;;9.70;7.00;;;;;;;9.99;99.89;98681.67;106916;1256;25336;-78
2023/09/06 02:58:42;;;;;;;10.40;7.40;;;;;;;9.96;99.75;98683.39;107031;1278;24371;-77
2023/09/06 03:01:19;;;;;;;10.30;7.50;;;;;;;9.92;99.60;98688.90;106784;1277;22533;-77
2023/09/06 03:03:53;;;;;;;9.60;8.40;;;;;;;9.89;99.85;98687.25;106625;1277;22542;-77
2023/09/06 03:06:32;;;;;;;8.40;7.40;;;;;;;9.87;99.98;98689.62;107057;1277;24200;-76
2023/09/06 03:09:08;;;;;;;10.90;7.70;;;;;;;9.80;100.00;98691.20;106739;1272;22530;-77
2023/09/06 03:11:38;;;;;;;9.70;7.80;;;;;;;9.70;100.00;98692.58;107077;1277;22531;-77
2023/09/06 03:14:06;;;;;;;10.90;7.60;;;;;;;9.68;100.00;98694.73;106740;1277;22473;-77
2023/09/06 03:16:38;;;;;;;8.20;7.40;;;;;;;9.67;99.96;98690.10;106879;1277;24249;-77
2023/09/06 03:19:10;;;;;;;9.80;8.80;;;;;;;9.68;99.98;98689.50;107009;1278;22533;-78
2023/09/06 03:21:39;;;;;;;11.10;8.60;;;;;;;9.69;99.94;98688.80;106965;1278;24234;-77
2023/09/06 03:24:11;;;;;;;10.20;8.80;;;;;;;9.68;99.95;98686.49;106734;1270;22705;-77
2023/09/06 03:26:43;;;;;;;9.60;8.50;;;;;;;9.66;100.00;98686.40;106937;1277;22523;-78
2023/09/06 03:29:15;;;;;;;9.90;8.10;;;;;;;9.64;100.00;98689.90;107078;1278;23218;-78
2023/09/06 03:31:45;;;;;;;9.00;7.90;;;;;;;9.57;100.00;98690.08;107038;1278;22572;-78
2023/09/06 03:34:15;;;;;;;12.10;8.10;;;;;;;9.51;100.00;98689.02;106887;1278;22568;-78
2023/09/06 03:36:55;;;;;;;10.00;8.70;;;;;;;9.52;100.00;98689.61;106478;1278;23917;-77
2023/09/06 03:39:28;;;;;;;9.60;7.80;;;;;;;9.53;100.00;98693.59;107004;1277;22629;-78
2023/09/06 03:42:00;;;;;;;9.70;8.20;;;;;;;9.48;100.00;98695.63;107033;1277;22544;-78
2023/09/06 03:44:31;;;;;;;11.00;8.90;;;;;;;9.47;100.00;98698.82;107039;1278;23327;-77
2023/09/06 03:47:00;;;;;;;10.40;9.00;;;;;;;9.47;100.00;98700.80;106520;1278;25460;-77
2023/09/06 03:49:28;;;;;;;11.60;9.50;;;;;;;9.48;100.00;98701.06;106511;1278;22702;-78
2023/09/06 03:51:59;;;;;;;13.40;8.80;;;;;;;9.50;100.00;98692.89;106635;1277;22608;-77
2023/09/06 03:54:27;;;;;;;9.90;8.90;;;;;;;9.53;100.00;98686.00;106943;1277;25404;-78
2023/09/06 03:56:54;;;;;;;10.40;8.30;;;;;;;9.59;100.00;98682.53;107021;1278;25596;-78
2023/09/06 03:59:24;;;;;;;9.40;8.40;;;;;;;9.62;100.00;98681.50;107061;1278;22528;-78
2023/09/06 04:01:52;;;;;;;11.40;8.30;;;;;;;9.63;100.00;98678.92;107045;1277;22521;-78
2023/09/06 04:04:20;;;;;;;9.20;8.10;;;;;;;9.61;100.00;98678.77;106978;1278;24461;-78
2023/09/06 04:06:49;;;;;;;10.20;7.90;;;;;;;9.48;100.00;98681.15;107089;1278;22527;-77
2023/09/06 04:09:27;;;;;;;9.20;8.10;;;;;;;9.40;100.00;98685.74;106527;1278;24354;-77
2023/09/06 04:11:58;;;;;;;13.50;8.20;;;;;;;9.35;100.00;98685.33;107062;1278;23009;-78
2023/09/06 04:14:27;;;;;;;8.80;7.90;;;;;;;9.35;100.00;98681.39;107189;1277;22657;-78
2023/09/06 04:16:55;;;;;;;8.70;7.80;;;;;;;9.36;100.00;98684.25;107035;1278;23142;-78
2023/09/06 04:19:23;;;;;;;11.60;8.50;;;;;;;9.36;100.00;98685.32;106618;1278;22482;-78
2023/09/06 04:21:51;;;;;;;8.40;7.60;;;;;;;9.42;100.00;98687.63;107033;1278;22587;-78
2023/09/06 04:24:20;;;;;;;9.80;7.10;;;;;;;9.44;100.00;98692.89;106829;1278;22879;-79
2023/09/06 04:26:48;;;;;;;8.10;6.50;;;;;;;9.46;100.00;98689.98;107035;1278;22539;-77
2023/09/06 04:29:17;;;;;;;8.20;7.30;;;;;;;9.46;100.00;98692.56;107090;1277;24330;-79
2023/09/06 04:31:45;;;;;;;11.00;9.90;;;;;;;9.46;100.00;98689.45;107108;1278;24530;-78
2023/09/06 04:34:13;;;;;;;10.20;9.20;;;;;;;9.48;100.00;98691.91;106762;1277;22556;-78
2023/09/06 04:36:42;;;;;;;9.40;7.50;;;;;;;9.53;100.00;98689.77;106957;1277;22577;-78
2023/09/06 04:39:10;;;;;;;12.00;8.30;;;;;;;9.51;100.00;98696.75;106773;1278;25434;-79
2023/09/06 04:41:39;;;;;;;10.80;9.00;;;;;;;9.50;100.00;98704.19;106725;1278;23201;-79
2023/09/06 04:44:07;;;;;;;10.90;9.20;;;;;;;9.54;100.00;98703.58;106839;1278;25414;-78
2023/09/06 04:46:35;;;;;;;12.70;9.80;;;;;;;9.60;100.00;98701.69;106967;1278;24067;-77
2023/09/06 04:49:03;;;;;;;11.20;9.80;;;;;;;9.65;100.00;98701.90;106496;1267;23001;-78
2023/09/06 04:51:32;;;;;;;9.10;8.10;;;;;;;9.78;100.00;98706.38;106790;1278;24256;-78
2023/09/06 04:54:01;;;;;;;13.70;9.30;;;;;;;9.87;100.00;98710.45;106689;1277;22643;-78
2023/09/06 04:56:35;;;;;;;9.30;8.00;;;;;;;9.94;100.00;98710.74;106581;1277;22529;-79
2023/09/06 04:59:04;;;;;;;11.20;8.00;;;;;;;10.03;100.00;98710.73;106888;1277;22647;-78
2023/09/06 05:01:32;;;;;;;11.00;8.30;;;;;;;10.16;100.00;98715.02;107127;1278;24043;-78
2023/09/06 05:04:00;;;;;;;10.90;8.10;;;;;;;10.27;100.00;98715.42;107153;1277;23273;-78
2023/09/06 05:06:29;;;;;;;10.40;8.30;;;;;;;10.39;100.00;98713.35;107051;1278;22618;-77
2023/09/06 05:08:57;;;;;;;12.50;8.00;;;;;;;10.53;100.00;98712.78;106682;1277;24400;-77
2023/09/06 05:11:26;;;;;;;13.60;9.60;;;;;;;10.66;100.00;98713.84;106697;1277;22531;-77
2023/09/06 05:13:55;;;;;;;14.20;8.60;;;;;;;10.80;100.00;98709.87;106535;1277;22540;-77
2023/09/06 05:16:24;;;;;;;10.90;8.50;;;;;;;10.94;100.00;98713.92;106758;1278;22633;-79
2023/09/06 05:18:52;;;;;;;12.50;9.30;;;;;;;11.06;100.00;98716.69;106846;1278;22535;-78
2023/09/06 05:21:24;;;;;;;10.90;9.00;;;;;;;11.18;100.00;98715.51;106711;1278;23925;-78
2023/09/06 05:23:52;;;;;;;9.40;8.40;;;;;;;11.36;100.00;98717.64;106620;1277;22530;-78
2023/09/06 05:26:20;;;;;;;12.00;8.90;;;;;;;11.53;100.00;98717.42;106855;1278;22657;-78
2023/09/06 05:28:49;;;;;;;12.10;8.90;;;;;;;11.69;100.00;98714.40;106816;1278;23458;-78
2023/09/06 05:31:18;;;;;;;10.50;8.90;;;;;;;11.86;100.00;98723.33;106814;1278;25356;-77
2023/09/06 05:33:47;;;;;;;12.30;8.60;;;;;;;12.03;100.00;98723.02;107029;1265;22609;-79
2023/09/06 05:36:17;;;;;;;10.60;8.30;;;;;;;12.22;100.00;98721.02;106882;1278;22608;-79
2023/09/06 05:38:45;;;;;;;12.40;9.20;;;;;;;12.45;100.00;98721.17;106836;1278;23949;-79
2023/09/06 05:41:13;;;;;;;12.00;9.60;;;;;;;12.65;100.00;98725.27;106795;1278;22537;-78
2023/09/06 05:43:43;;;;;;;13.20;9.90;;;;;;;12.85;100.00;98729.10;106852;1278;22694;-78
2023/09/06 05:46:13;;;;;;;17.00;10.50;;;;;;;13.04;100.00;98726.16;106868;1278;22623;-78
2023/09/06 05:49:00;;;;;;;19.40;11.80;;;;;;;13.28;100.00;98725.64;106430;1278;22540;-78
2023/09/06 05:51:31;;;;;;;19.50;11.60;;;;;;;13.49;100.00;98726.26;106480;1278;22539;-78
2023/09/06 05:54:01;;;;;;;18.10;12.40;;;;;;;13.66;100.00;98726.47;106479;1278;22538;-78
2023/09/06 05:56:29;;;;;;;25.20;15.10;;;;;;;13.79;100.00;98725.71;106461;1278;23114;-78
2023/09/06 05:58:58;;;;;;;15.70;12.80;;;;;;;13.90;100.00;98731.59;106787;1278;22534;-78
2023/09/06 06:01:26;;;;;;;22.40;12.20;;;;;;;14.01;100.00;98732.62;106738;1278;22802;-78
2023/09/06 06:03:54;;;;;;;13.60;10.50;;;;;;;14.14;100.00;98727.66;106809;1278;23000;-78
2023/09/06 06:06:23;;;;;;;16.30;11.50;;;;;;;14.27;100.00;98730.00;106803;1278;22524;-78
2023/09/06 06:08:51;;;;;;;19.20;11.10;;;;;;;14.41;100.00;98734.59;106562;1278;23858;-78
2023/09/06 06:11:19;;;;;;;14.10;11.10;;;;;;;14.52;100.00;98736.51;106878;1278;22533;-78
2023/09/06 06:13:47;;;;;;;12.50;11.20;;;;;;;14.62;100.00;98738.45;106878;1279;25604;-78
2023/09/06 06:16:35;;;;;;;15.50;11.30;;;;;;;14.78;100.00;98738.06;106879;1278;22642;-78
2023/09/06 06:19:03;;;;;;;15.70;11.30;;;;;;;14.93;100.00;98743.14;106888;1278;22786;-78
2023/09/06 06:21:31;;;;;;;14.50;11.60;;;;;;;15.09;100.00;98738.70;106906;1278;22557;-78
2023/09/06 06:24:00;;;;;;;11.60;10.20;;;;;;;15.23;100.00;98737.50;106840;1278;22787;-78
2023/09/06 06:26:28;;;;;;;13.00;10.30;;;;;;;15.37;100.00;98741.23;106879;1278;22567;-78
2023/09/06 06:28:56;;;;;;;14.20;9.00;;;;;;;15.49;100.00;98741.21;106545;1278;22525;-77
2023/09/06 06:31:25;;;;;;;13.10;9.10;;;;;;;15.61;100.00;98735.02;106822;1278;22655;-77
2023/09/06 06:33:53;;;;;;;12.00;8.70;;;;;;;15.75;100.00;98735.23;106564;1278;22530;-78
2023/09/06 06:36:21;;;;;;;15.50;9.50;;;;;;;15.88;100.00;98740.91;106868;1278;22687;-78
2023/09/06 06:38:49;;;;;;;12.30;9.20;;;;;;;16.02;100.00;98739.86;106899;1278;22650;-78
2023/09/06 06:41:20;;;;;;;15.30;8.90;;;;;;;16.14;100.00;98741.92;106927;1278;22546;-78
2023/09/06 06:43:49;;;;;;;13.30;9.80;;;;;;;16.22;100.00;98739.45;106986;1279;22698;-76
2023/09/06 06:46:43;;;;;;;15.30;8.40;;;;;;;16.34;100.00;98746.30;106616;1278;25331;-77
2023/09/06 06:49:11;;;;;;;13.20;9.00;;;;;;;16.50;100.00;98744.86;106888;1278;25362;-78
2023/09/06 06:51:40;;;;;;;11.30;8.20;;;;;;;16.62;100.00;98742.70;106905;1278;24366;-78
2023/09/06 06:54:14;;;;;;;19.00;8.40;;;;;;;16.75;100.00;98742.08;106917;1279;22587;-78
2023/09/06 06:56:43;;;;;;;10.30;7.90;;;;;;;16.86;100.00;98740.17;106956;1278;22536;-78
2023/09/06 06:59:13;;;;;;;10.00;7.60;;;;;;;16.95;100.00;98735.71;106951;1278;22619;-78
2023/09/06 07:01:41;;;;;;;7.90;7.10;;;;;;;17.06;100.00;98736.84;106974;1279;22522;-78
2023/09/06 07:04:09;;;;;;;12.30;7.70;;;;;;;17.18;100.00;98741.47;106833;1279;22576;-76
2023/09/06 07:06:37;;;;;;;11.50;7.60;;;;;;;17.33;100.00;98742.88;106496;1278;22966;-77
2023/09/06 07:09:05;;;;;;;9.80;8.30;;;;;;;17.45;100.00;98741.94;106825;1278;24071;-77
2023/09/06 07:11:33;;;;;;;10.80;7.70;;;;;;;17.51;100.00;98743.15;106817;1278;22559;-76
2023/09/06 07:14:02;;;;;;;12.10;7.60;;;;;;;17.56;100.00;98739.84;106906;1278;24218;-77
2023/09/06 07:16:33;;;;;;;10.00;7.10;;;;;;;17.62;100.00;98741.23;106885;1278;25223;-78
2023/09/06 07:19:02;;;;;;;8.00;6.80;;;;;;;17.71;100.00;98744.86;106575;1278;22528;-77
2023/09/06 07:21:31;;;;;;;8.10;7.10;;;;;;;17.80;99.97;98744.00;106928;1278;24209;-78
2023/09/06 07:23:59;;;;;;;10.60;7.30;;;;;;;17.87;99.68;98744.31;106547;1278;22640;-78
2023/09/06 07:26:27;;;;;;;8.80;6.70;;;;;;;17.96;99.28;98748.50;106925;1278;22524;-78
2023/09/06 07:28:55;;;;;;;9.40;6.40;;;;;;;18.04;97.66;98751.81;106920;1278;24255;-77
2023/09/06 07:31:23;;;;;;;9.60;6.80;;;;;;;18.12;97.79;98753.67;106940;1278;22739;-77
2023/09/06 07:33:51;;;;;;;12.10;6.70;;;;;;;18.21;97.37;98753.73;106593;1278;22614;-78
2023/09/06 07:36:19;;;;;;;11.00;6.20;;;;;;;18.29;96.12;98754.98;106948;1278;22552;-78
2023/09/06 07:38:48;;;;;;;9.80;6.70;;;;;;;18.41;96.18;98755.45;106610;1278;22534;-78
2023/09/06 07:41:17;;;;;;;9.10;6.40;;;;;;;18.52;95.97;98753.15;106905;1278;23921;-78
2023/09/06 07:43:45;;;;;;;10.50;6.40;;;;;;;18.62;94.60;98753.54;106598;1278;25356;-78
2023/09/06 07:46:13;;;;;;;8.10;6.60;;;;;;;18.70;94.45;98752.43;106762;1278;22654;-78
2023/09/06 07:48:41;;;;;;;13.40;6.60;;;;;;;18.76;94.20;98748.10;106765;1278;22654;-78
2023/09/06 07:51:12;;;;;;;9.50;6.00;;;;;;;18.85;93.78;98753.21;106803;1278;24380;-79
2023/09/06 07:53:41;;;;;;;7.50;6.10;;;;;;;18.96;93.29;98748.68;106895;1278;24412;-77
2023/09/06 07:56:10;;;;;;;10.60;6.20;;;;;;;19.02;92.45;98750.89;106612;1278;22929;-77
2023/09/06 07:58:38;;;;;;;7.00;5.60;;;;;;;19.06;90.13;98754.77;106904;1278;23162;-77
2023/09/06 08:01:06;;;;;;;7.50;6.00;;;;;;;19.11;91.11;98751.12;106439;1278;25689;-76
2023/09/06 08:03:46;;;;;;;9.00;6.00;;;;;;;19.19;89.18;98751.13;106649;1278;22536;-77
2023/09/06 08:06:15;;;;;;;9.60;6.10;;;;;;;19.23;89.08;98750.16;106852;1279;22509;-77
2023/09/06 08:08:44;;;;;;;12.50;6.40;;;;;;;19.31;88.50;98748.23;106535;1278;22892;-77
2023/09/06 08:11:17;;;;;;;7.90;6.10;;;;;;;19.38;86.63;98753.89;106569;1279;22605;-77
2023/09/06 08:13:45;;;;;;;7.40;5.20;;;;;;;19.47;87.07;98750.61;107185;1279;23905;-79
2023/09/06 08:16:13;;;;;;;7.80;5.10;;;;;;;19.58;87.29;98751.14;107203;1278;22579;-79
2023/09/06 08:18:41;;;;;;;11.40;5.40;;;;;;;19.71;86.87;98750.31;107185;1278;22517;-79
2023/09/06 08:21:10;;;;;;;6.90;5.50;;;;;;;19.80;86.98;98749.98;106889;1260;22658;-78
2023/09/06 08:23:38;;;;;;;6.70;5.50;;;;;;;19.91;86.54;98751.55;106587;1278;22576;-79
2023/09/06 08:26:06;;;;;;;7.60;5.80;;;;;;;20.04;85.71;98752.02;106679;1279;24299;-78
2023/09/06 08:28:35;;;;;;;6.50;5.70;;;;;;;20.14;85.90;98753.88;106713;1278;25426;-80
2023/09/06 08:31:03;;;;;;;6.80;5.00;;;;;;;20.26;85.24;98753.61;106682;1278;22698;-78
2023/09/06 08:33:32;;;;;;;7.60;5.00;;;;;;;20.36;85.29;98757.30;107108;1278;22618;-78
2023/09/06 08:36:01;;;;;;;7.70;5.70;;;;;;;20.48;85.02;98761.27;106891;1278;25860;-78
2023/09/06 08:38:29;;;;;;;8.90;5.30;;;;;;;20.58;82.82;98759.30;106796;1278;22658;-77
2023/09/06 08:40:58;;;;;;;6.60;5.10;;;;;;;20.64;82.99;98759.45;107129;1277;22646;-79
2023/09/06 08:43:34;;;;;;;10.50;6.20;;;;;;;20.71;82.01;98754.13;106574;1278;25473;-79
2023/09/06 08:46:09;;;;;;;6.20;5.20;;;;;;;20.77;80.84;98762.45;106593;1278;24226;-78
2023/09/06 08:48:37;;;;;;;8.00;5.70;;;;;;;20.86;81.05;98754.23;107205;1260;25601;-77
2023/09/06 08:51:06;;;;;;;7.60;4.80;;;;;;;20.97;81.03;98754.34;106728;1277;24274;-77
2023/09/06 08:53:34;;;;;;;6.80;5.40;;;;;;;21.08;80.39;98758.02;106664;1278;22580;-78
2023/09/06 08:56:03;;;;;;;10.70;6.10;;;;;;;21.19;80.91;98751.93;106721;1278;22646;-78
2023/09/06 08:58:33;;;;;;;10.30;5.70;;;;;;;21.29;78.81;98752.28;106922;1278;25271;-78
2023/09/06 09:01:05;;;;;;;7.00;5.30;;;;;;;21.32;78.18;98756.20;106869;1278;22516;-78
2023/09/06 09:03:34;;;;;;;7.80;5.30;;;;;;;21.35;77.05;98754.10;106800;1278;22531;-77
2023/09/06 09:06:08;;;;;;;10.30;6.00;;;;;;;21.37;77.19;98748.36;106495;1278;23269;-78
2023/09/06 09:08:37;;;;;;;7.80;6.00;;;;;;;21.49;77.75;98755.84;106836;1277;24189;-78
2023/09/06 09:11:14;;;;;;;9.40;6.60;;;;;;;21.63;77.46;98754.27;107013;1278;25422;-79
2023/09/06 09:13:42;;;;;;;9.80;6.10;;;;;;;21.71;77.62;98757.84;107073;1273;24447;-79
2023/09/06 09:16:15;;;;;;;9.90;6.20;;;;;;;21.83;76.47;98756.73;107064;1278;24194;-79
2023/09/06 09:18:45;;;;;;;8.90;6.10;;;;;;;21.93;76.57;98761.08;107129;1278;24478;-78
2023/09/06 09:21:13;;;;;;;10.80;6.30;;;;;;;22.04;76.45;98758.83;107131;1278;22558;-79
2023/09/06 09:24:02;;;;;;;11.10;6.40;;;;;;;22.12;76.53;98757.71;106692;1278;22530;-78
2023/09/06 09:26:32;;;;;;;7.10;5.40;;;;;;;22.24;76.18;98759.53;106568;1278;24430;-78
2023/09/06 09:29:03;;;;;;;8.60;5.90;;;;;;;22.33;75.13;98760.36;107060;1278;22568;-78
2023/09/06 09:31:31;;;;;;;7.80;5.80;;;;;;;22.44;75.12;98762.97;107082;1278;22531;-78
2023/09/06 09:34:00;;;;;;;10.80;6.00;;;;;;;22.48;71.70;98758.05;107076;1278;22609;-78
2023/09/06 09:36:34;;;;;;;8.40;5.80;;;;;;;22.53;73.15;98758.48;106514;1278;25510;-77
2023/09/06 09:39:09;;;;;;;10.50;5.90;;;;;;;22.63;73.02;98755.03;106601;1278;25489;-78
2023/09/06 09:41:41;;;;;;;8.60;6.10;;;;;;;22.77;74.09;98760.29;106844;1278;22514;-78
2023/09/06 09:44:26;;;;;;;10.20;5.30;;;;;;;22.96;74.06;98756.30;106942;1278;22769;-78
2023/09/06 09:46:57;;;;;;;7.60;5.50;;;;;;;23.10;72.48;98761.42;106516;1278;23452;-78
2023/09/06 09:49:28;;;;;;;7.20;5.40;;;;;;;23.22;73.12;98765.03;107149;1278;24320;-78
2023/09/06 09:51:56;;;;;;;8.60;5.50;;;;;;;23.35;72.22;98761.45;107066;1278;22527;-79
2023/09/06 09:54:28;;;;;;;8.10;5.60;;;;;;;23.41;71.38;98762.89;106693;1277;22635;-78
2023/09/06 09:57:06;;;;;;;7.30;4.90;;;;;;;23.46;70.99;98761.27;106896;1278;25416;-78
2023/09/06 09:59:38;;;;;;;8.00;6.00;;;;;;;23.53;70.82;98764.33;106729;1260;24258;-78
2023/09/06 10:02:09;;;;;;;8.20;5.20;;;;;;;23.66;69.64;98766.61;107081;1278;24060;-78
2023/09/06 10:04:42;;;;;;;7.20;5.40;;;;;;;23.76;70.14;98766.35;106821;1278;25319;-78
2023/09/06 10:07:14;;;;;;;9.00;5.40;;;;;;;23.84;69.33;98769.09;106851;1278;25319;-77
2023/09/06 10:09:42;;;;;;;9.00;5.90;;;;;;;23.91;69.44;98767.25;106727;1277;22638;-78
2023/09/06 10:12:14;;;;;;;6.00;4.80;;;;;;;24.01;69.41;98768.44;107050;1277;24225;-78
2023/09/06 10:14:42;;;;;;;6.80;5.00;;;;;;;24.10;69.05;98770.71;107101;1278;22560;-78
2023/09/06 10:17:11;;;;;;;6.90;4.60;;;;;;;24.14;68.49;98767.25;106745;1277;23880;-78
2023/09/06 10:19:41;;;;;;;5.40;4.80;;;;;;;24.26;69.02;98762.56;106722;1278;24495;-78
2023/09/06 10:22:22;;;;;;;8.20;4.90;;;;;;;24.43;68.15;98763.02;106653;1278;22570;-77
2023/09/06 10:24:53;;;;;;;7.80;5.30;;;;;;;24.55;66.82;98760.59;106741;1278;22669;-78
2023/09/06 10:27:31;;;;;;;11.70;5.60;;;;;;;24.64;66.25;98759.32;107065;1278;22541;-78
2023/09/06 10:30:06;;;;;;;6.40;4.70;;;;;;;24.70;66.18;98759.79;106853;1277;25728;-78
2023/09/06 10:32:43;;;;;;;7.40;4.60;;;;;;;24.80;66.14;98760.32;106760;1277;22534;-78
2023/09/06 10:35:25;;;;;;;6.90;5.00;;;;;;;24.90;66.19;98758.09;106981;1277;22731;-78
2023/09/06 10:38:04;;;;;;;9.60;4.40;;;;;;;24.97;66.38;98758.04;107065;1278;25341;-78
2023/09/06 10:41:06;;;;;;;5.20;4.20;;;;;;;25.08;65.50;98754.25;107113;1267;24935;-78
2023/09/06 10:43:54;;;;;;;9.10;4.40;;;;;;;25.22;65.03;98752.01;107052;1277;22584;-78
2023/09/06 10:46:24;;;;;;;9.00;4.60;;;;;;;25.30;64.99;98755.58;106916;1277;24308;-78
2023/09/06 10:49:23;;;;;;;7.50;4.70;;;;;;;25.38;64.19;98751.02;106962;1278;22608;-78
2023/09/06 10:52:08;;;;;;;6.10;4.50;;;;;;;25.41;62.93;98754.34;106857;1278;22572;-78
2023/09/06 10:54:44;;;;;;;9.40;4.40;;;;;;;25.43;62.68;98749.33;106986;1278;26515;-78
2023/09/06 10:57:14;;;;;;;8.90;4.80;;;;;;;25.43;62.10;98746.73;106865;1277;23860;-78
2023/09/06 10:59:44;;;;;;;8.60;4.50;;;;;;;25.47;61.08;98745.98;106879;1262;22529;-78
2023/09/06 11:02:15;;;;;;;7.60;4.30;;;;;;;25.57;60.85;98743.65;107102;1278;25114;-78
2023/09/06 11:04:47;;;;;;;6.90;4.30;;;;;;;25.72;60.81;98739.31;107009;1278;22538;-78
2023/09/06 11:07:15;;;;;;;6.20;4.30;;;;;;;25.91;61.09;98739.84;106809;1277;24404;-78
2023/09/06 11:09:45;;;;;;;8.30;4.30;;;;;;;26.03;59.31;98743.02;106739;1277;22547;-78
2023/09/06 11:12:13;;;;;;;5.30;4.20;;;;;;;26.04;59.09;98740.81;106769;1277;24232;-78
2023/09/06 11:14:47;;;;;;;6.30;4.40;;;;;;;26.09;58.89;98739.59;106899;1277;26041;-78
2023/09/06 11:17:22;;;;;;;8.30;4.00;;;;;;;26.22;58.79;98740.71;106561;1278;24385;-78
2023/09/06 11:19:50;;;;;;;9.40;4.60;;;;;;;26.24;57.21;98746.82;106989;1277;22640;-78
2023/09/06 11:22:19;;;;;;;7.70;4.40;;;;;;;26.24;57.18;98741.92;107015;1277;25287;-79
2023/09/06 11:24:48;;;;;;;10.10;4.70;;;;;;;26.25;56.92;98739.17;107064;1278;22535;-79
2023/09/06 11:27:33;;;;;;;5.70;4.20;;;;;;;26.26;55.34;98736.73;107083;1278;23001;-80
2023/09/06 11:30:10;;;;;;;6.50;4.10;;;;;;;26.26;54.34;98734.27;106796;1278;22546;-78
2023/09/06 11:32:39;;;;;;;9.30;4.30;;;;;;;26.27;55.38;98736.26;106746;1277;24270;-77
2023/09/06 11:35:09;;;;;;;6.00;4.20;;;;;;;26.43;54.74;98728.24;106694;1277;25338;-78